Time;durP1;ratioP1;P1;durP2;ratioP2;P2;SDS_P1;SDS_P2;PMS_P1;PMS_P2;Temp;Humidity;BMP_temperature;BMP_pressure;BME280_temperature;BME280_humidity;BME280_pressure;Samples;Min_cycle;Max_cycle;Signal;HPM_P1;HPM_P2
2022/10/10 00:01:20;;;;;;;;;;;;;;;27.13;33.56;101492.13;5069977;28;1202;-47
2022/10/10 00:03:45;;;;;;;;;;;;;;;27.12;33.40;101494.00;5075173;28;1147;-45
2022/10/10 00:06:10;;;;;;;;;;;;;;;27.04;33.95;101495.84;5056020;28;1166;-48
2022/10/10 00:08:36;;;;;;;;;;;;;;;27.15;33.88;101495.53;5055835;28;1178;-47
2022/10/10 00:11:01;;;;;;;;;;;;;;;27.10;33.81;101495.16;5055515;28;1163;-44
2022/10/10 00:13:26;;;;;;;;;;;;;;;27.13;33.21;101495.69;5063135;28;1905;-46
2022/10/10 00:15:52;;;;;;;;;;;;;;;27.15;33.50;101500.91;5072911;28;1103;-45
2022/10/10 00:18:17;;;;;;;;;;;;;;;27.16;33.55;101493.69;5055880;28;1124;-47
2022/10/10 00:20:42;;;;;;;;;;;;;;;27.13;33.71;101497.53;5055781;28;1408;-47
2022/10/10 00:23:07;;;;;;;;;;;;;;;27.07;33.92;101503.59;5055855;28;1091;-44
2022/10/10 00:25:33;;;;;;;;;;;;;;;27.11;33.48;101507.69;5055265;28;1128;-47
2022/10/10 00:28:01;;;;;;;;;;;;;;;27.05;33.92;101501.06;5060004;28;2461;-49
2022/10/10 00:30:27;;;;;;;;;;;;;;;27.07;33.92;101507.16;5075295;28;1103;-47
2022/10/10 00:32:52;;;;;;;;;;;;;;;27.05;33.96;101508.31;5061220;28;1944;-46
2022/10/10 00:35:17;;;;;;;;;;;;;;;27.09;33.45;101507.00;5066927;28;1162;-48
2022/10/10 00:37:42;;;;;;;;;;;;;;;27.08;33.75;101514.25;5064068;28;1233;-46
2022/10/10 00:40:08;;;;;;;;;;;;;;;27.00;33.80;101512.34;5068852;28;1147;-45
2022/10/10 00:42:33;;;;;;;;;;;;;;;27.04;33.63;101512.03;5068423;28;1081;-55
2022/10/10 00:45:17;;;;;;;;;;;;;;;27.06;33.58;101516.25;5056196;28;1242;-47
2022/10/10 00:47:42;;;;;;;;;;;;;;;26.99;33.81;101520.59;5055443;28;1088;-48
2022/10/10 00:50:08;;;;;;;;;;;;;;;27.02;33.50;101517.59;5048544;28;1136;-49
2022/10/10 00:52:33;;;;;;;;;;;;;;;27.05;33.89;101519.97;5064448;28;1961;-53
2022/10/10 00:54:58;;;;;;;;;;;;;;;27.10;33.63;101523.03;5055389;28;1176;-49
2022/10/10 00:57:24;;;;;;;;;;;;;;;27.04;33.98;101517.44;5055315;28;2176;-48
2022/10/10 00:59:49;;;;;;;;;;;;;;;27.10;33.31;101523.03;5051870;28;1176;-50
2022/10/10 01:02:14;;;;;;;;;;;;;;;27.10;33.66;101527.56;5066154;28;907;-50
2022/10/10 01:04:43;;;;;;;;;;;;;;;27.26;33.54;101522.22;5067028;28;1196;-47
2022/10/10 01:07:13;;;;;;;;;;;;;;;27.24;33.23;101523.41;5054767;28;1191;-44
2022/10/10 01:09:38;;;;;;;;;;;;;;;27.17;33.69;101527.75;5055152;28;1100;-46
2022/10/10 01:12:17;;;;;;;;;;;;;;;27.16;33.69;101526.09;5033625;28;1274;-45
2022/10/10 01:14:55;;;;;;;;;;;;;;;27.18;33.26;101529.44;5017109;28;1965;-44
2022/10/10 01:17:32;;;;;;;;;;;;;;;27.20;33.62;101527.44;5035148;28;1179;-46
2022/10/10 01:20:16;;;;;;;;;;;;;;;27.18;33.68;101524.03;5017474;28;1172;-45
2022/10/10 01:22:59;;;;;;;;;;;;;;;27.19;33.51;101528.44;5035315;28;1160;-43
2022/10/10 01:25:28;;;;;;;;;;;;;;;27.17;33.66;101527.75;5035030;28;1113;-47
2022/10/10 01:27:53;;;;;;;;;;;;;;;27.20;33.46;101532.84;5017503;28;2611;-48
2022/10/10 01:30:22;;;;;;;;;;;;;;;27.25;33.33;101535.88;5036531;28;1116;-45
2022/10/10 01:32:51;;;;;;;;;;;;;;;27.28;33.25;101538.25;5047738;28;1894;-47
2022/10/10 01:35:29;;;;;;;;;;;;;;;27.31;33.47;101542.50;5017836;28;1204;-45
2022/10/10 01:38:03;;;;;;;;;;;;;;;27.24;33.41;101536.91;5056750;28;1147;-46
2022/10/10 01:40:33;;;;;;;;;;;;;;;27.26;33.27;101538.41;5057711;28;1104;-44
2022/10/10 01:42:58;;;;;;;;;;;;;;;27.23;33.32;101540.59;5020985;28;1117;-45
2022/10/10 01:45:24;;;;;;;;;;;;;;;27.29;33.27;101547.22;5020605;28;1153;-47
2022/10/10 01:47:49;;;;;;;;;;;;;;;27.30;33.34;101546.19;5020969;28;1240;-45
2022/10/10 01:50:15;;;;;;;;;;;;;;;27.37;33.33;101541.84;5028810;28;1113;-43
2022/10/10 01:52:47;;;;;;;;;;;;;;;27.34;33.04;101545.69;5055012;28;1959;-43
2022/10/10 01:55:19;;;;;;;;;;;;;;;27.33;33.11;101546.72;5038378;28;1188;-42
2022/10/10 01:57:44;;;;;;;;;;;;;;;27.32;33.46;101544.19;5038448;28;2388;-45
2022/10/10 02:00:10;;;;;;;;;;;;;;;27.35;32.96;101535.75;5038449;28;1085;-45
2022/10/10 02:02:40;;;;;;;;;;;;;;;27.30;33.02;101535.38;5038058;28;1164;-44
2022/10/10 02:05:18;;;;;;;;;;;;;;;27.35;33.10;101533.91;5020736;28;1192;-45
2022/10/10 02:07:52;;;;;;;;;;;;;;;27.39;33.08;101539.81;5037872;28;1234;-43
2022/10/10 02:10:19;;;;;;;;;;;;;;;27.31;33.33;101547.91;5020563;28;1196;-46
2022/10/10 02:12:44;;;;;;;;;;;;;;;27.24;33.55;101559.34;5029574;28;1917;-43
2022/10/10 02:15:11;;;;;;;;;;;;;;;27.27;33.55;101566.28;5040456;28;1002;-49
2022/10/10 02:17:37;;;;;;;;;;;;;;;27.31;33.08;101564.13;5057753;28;1179;-47
2022/10/10 02:20:02;;;;;;;;;;;;;;;27.26;33.60;101578.94;5040284;28;1233;-50
2022/10/10 02:22:28;;;;;;;;;;;;;;;27.22;33.70;101566.78;5039788;28;1175;-47
2022/10/10 02:24:53;;;;;;;;;;;;;;;27.15;33.37;101565.75;5040154;28;1167;-51
2022/10/10 02:27:20;;;;;;;;;;;;;;;27.11;33.58;101569.78;5066574;28;2406;-44
2022/10/10 02:29:46;;;;;;;;;;;;;;;27.12;33.34;101583.13;5059186;28;1180;-50
2022/10/10 02:32:13;;;;;;;;;;;;;;;27.05;33.71;101592.03;5049010;28;1116;-50
2022/10/10 02:34:42;;;;;;;;;;;;;;;26.43;32.53;101597.38;5060692;28;1959;-46
2022/10/10 02:37:09;;;;;;;;;;;;;;;26.77;33.31;101607.41;5067190;28;1155;-49
2022/10/10 02:39:35;;;;;;;;;;;;;;;26.85;32.95;101609.28;5057372;28;877;-50
2022/10/10 02:42:01;;;;;;;;;;;;;;;26.99;32.88;101615.09;5057247;28;1171;-49
2022/10/10 02:44:27;;;;;;;;;;;;;;;27.06;32.97;101621.56;5057586;28;1092;-48
2022/10/10 02:46:52;;;;;;;;;;;;;;;27.04;33.11;101626.31;5039418;28;1167;-50
2022/10/10 02:49:27;;;;;;;;;;;;;;;27.11;33.17;101629.22;5056925;28;1327;-49
2022/10/10 02:51:52;;;;;;;;;;;;;;;27.16;32.78;101640.34;5074993;28;1156;-48
2022/10/10 02:54:17;;;;;;;;;;;;;;;27.30;32.91;101621.84;5066104;28;1957;-47
2022/10/10 02:56:43;;;;;;;;;;;;;;;27.25;32.89;101627.72;5059554;28;1868;-53
2022/10/10 02:59:08;;;;;;;;;;;;;;;27.25;32.69;101625.03;5056829;28;1105;-47
2022/10/10 03:01:33;;;;;;;;;;;;;;;27.25;33.19;101641.25;5057141;28;1155;-45
2022/10/10 03:03:58;;;;;;;;;;;;;;;27.18;33.21;101630.22;5056467;28;932;-50
2022/10/10 03:06:24;;;;;;;;;;;;;;;27.31;32.82;101637.06;5057200;28;1233;-44
2022/10/10 03:08:49;;;;;;;;;;;;;;;27.28;32.91;101642.78;5071015;28;1132;-48
2022/10/10 03:11:14;;;;;;;;;;;;;;;27.31;33.09;101647.84;5056683;28;1202;-49
2022/10/10 03:13:40;;;;;;;;;;;;;;;27.23;33.07;101645.94;5056438;28;1977;-49
2022/10/10 03:16:05;;;;;;;;;;;;;;;27.09;33.24;101656.34;5074568;28;1144;-47
2022/10/10 03:18:31;;;;;;;;;;;;;;;27.05;33.06;101659.53;5066150;28;1147;-46
2022/10/10 03:20:56;;;;;;;;;;;;;;;26.26;32.06;101661.09;5056676;28;1210;-46
2022/10/10 03:23:22;;;;;;;;;;;;;;;25.86;32.72;101668.66;5056707;28;1111;-49
2022/10/10 03:25:47;;;;;;;;;;;;;;;25.75;32.36;101659.78;5056729;28;1164;-48
2022/10/10 03:28:12;;;;;;;;;;;;;;;25.64;32.07;101663.53;5061223;28;2301;-49
2022/10/10 03:30:38;;;;;;;;;;;;;;;25.64;32.16;101658.13;5056741;28;1116;-46
2022/10/10 03:33:03;;;;;;;;;;;;;;;25.58;32.52;101666.78;5056257;28;1961;-48
2022/10/10 03:35:28;;;;;;;;;;;;;;;25.46;32.45;101668.84;5056488;28;1215;-50
2022/10/10 03:37:54;;;;;;;;;;;;;;;25.36;32.72;101660.81;5056339;28;1222;-51
2022/10/10 03:40:19;;;;;;;;;;;;;;;25.29;32.87;101668.63;5056215;28;921;-49
2022/10/10 03:42:45;;;;;;;;;;;;;;;25.35;32.75;101666.34;5056427;28;1152;-48
2022/10/10 03:45:10;;;;;;;;;;;;;;;25.33;32.38;101677.25;5062599;28;1143;-47
2022/10/10 03:47:35;;;;;;;;;;;;;;;25.28;32.19;101674.16;5076409;28;1190;-52
2022/10/10 03:50:01;;;;;;;;;;;;;;;25.17;32.44;101672.53;5058525;28;1124;-49
2022/10/10 03:52:26;;;;;;;;;;;;;;;25.12;32.49;101664.88;5074535;28;917;-54
2022/10/10 03:54:51;;;;;;;;;;;;;;;25.05;32.52;101659.25;5060097;28;1960;-50
2022/10/10 03:57:16;;;;;;;;;;;;;;;25.04;32.74;101670.16;5056098;28;2373;-48
2022/10/10 03:59:42;;;;;;;;;;;;;;;25.01;32.32;101673.97;5055719;28;1132;-50
2022/10/10 04:02:07;;;;;;;;;;;;;;;24.92;32.43;101669.47;5057056;28;1171;-50
2022/10/10 04:04:32;;;;;;;;;;;;;;;24.34;32.88;101669.34;5075401;28;913;-40
2022/10/10 04:06:58;;;;;;;;;;;;;;;25.07;32.03;101670.69;5075489;28;1071;-45
2022/10/10 04:09:23;;;;;;;;;;;;;;;25.74;31.97;101673.41;5070625;28;1172;-40
2022/10/10 04:11:48;;;;;;;;;;;;;;;25.86;31.46;101669.50;5055559;28;1230;-39
2022/10/10 04:14:13;;;;;;;;;;;;;;;25.83;30.45;101677.88;5055848;28;1909;-41
2022/10/10 04:16:39;;;;;;;;;;;;;;;25.75;30.59;101677.78;5074114;28;989;-40
2022/10/10 04:19:04;;;;;;;;;;;;;;;25.89;30.51;101679.13;5061358;28;1194;-42
2022/10/10 04:21:29;;;;;;;;;;;;;;;26.03;30.56;101691.22;5068847;28;1186;-41
2022/10/10 04:23:55;;;;;;;;;;;;;;;26.03;30.83;101691.22;5055592;28;1112;-41
2022/10/10 04:26:20;;;;;;;;;;;;;;;26.09;31.03;101690.63;5055748;28;1191;-39
2022/10/10 04:28:45;;;;;;;;;;;;;;;26.20;30.74;101697.66;5054851;28;2230;-42
2022/10/10 04:31:10;;;;;;;;;;;;;;;26.30;31.08;101692.16;5055748;28;1116;-38
2022/10/10 04:33:36;;;;;;;;;;;;;;;26.21;31.44;101696.63;5055619;28;1898;-40
2022/10/10 04:36:01;;;;;;;;;;;;;;;26.25;31.63;101703.44;5069765;28;1207;-41
2022/10/10 04:38:27;;;;;;;;;;;;;;;26.36;31.49;101706.94;5055446;28;1120;-38
2022/10/10 04:40:52;;;;;;;;;;;;;;;26.34;31.81;101709.75;5068220;28;898;-38
2022/10/10 04:43:17;;;;;;;;;;;;;;;26.41;31.73;101708.16;5057374;28;1147;-40
2022/10/10 04:45:43;;;;;;;;;;;;;;;26.44;32.00;101708.84;5055681;28;1116;-38
2022/10/10 04:48:08;;;;;;;;;;;;;;;26.38;32.11;101713.84;5055405;28;1179;-41
2022/10/10 04:50:33;;;;;;;;;;;;;;;26.32;31.65;101711.75;5063939;28;1194;-43
2022/10/10 04:52:59;;;;;;;;;;;;;;;26.40;32.15;101721.78;5074879;28;1941;-40
2022/10/10 04:55:24;;;;;;;;;;;;;;;26.39;32.48;101722.81;5055569;28;1175;-40
2022/10/10 04:57:49;;;;;;;;;;;;;;;26.37;32.56;101706.78;5055152;28;1935;-39
2022/10/10 05:00:14;;;;;;;;;;;;;;;26.34;32.45;101717.84;5055435;28;1121;-39
2022/10/10 05:02:40;;;;;;;;;;;;;;;26.43;32.08;101718.78;5061434;28;1144;-40
2022/10/10 05:05:05;;;;;;;;;;;;;;;26.41;32.56;101721.63;5074634;28;961;-38
2022/10/10 05:07:31;;;;;;;;;;;;;;;26.43;32.83;101726.03;5061686;28;1179;-40
2022/10/10 05:09:56;;;;;;;;;;;;;;;26.43;32.83;101720.63;5065545;28;1095;-40
2022/10/10 05:12:22;;;;;;;;;;;;;;;26.45;32.35;101738.38;5056509;28;1140;-40
2022/10/10 05:14:47;;;;;;;;;;;;;;;26.51;32.44;101740.44;5058957;28;1910;-37
2022/10/10 05:17:12;;;;;;;;;;;;;;;26.50;32.61;101735.19;5078159;28;1023;-40
2022/10/10 05:19:38;;;;;;;;;;;;;;;26.51;32.48;101739.59;5073017;28;1207;-39
2022/10/10 05:22:03;;;;;;;;;;;;;;;26.48;32.63;101743.47;5059375;28;1148;-41
2022/10/10 05:24:28;;;;;;;;;;;;;;;26.54;32.70;101755.50;5072719;28;1479;-38
2022/10/10 05:26:54;;;;;;;;;;;;;;;26.60;32.90;101759.41;5066418;28;1864;-41
2022/10/10 05:29:19;;;;;;;;;;;;;;;26.62;32.85;101758.25;5078452;28;1004;-39
2022/10/10 05:31:44;;;;;;;;;;;;;;;26.63;32.66;101765.34;5078962;28;1108;-39
2022/10/10 05:34:11;;;;;;;;;;;;;;;26.71;32.76;101774.53;5064576;28;1898;-39
2022/10/10 05:36:36;;;;;;;;;;;;;;;26.69;33.09;101772.00;5058801;28;1493;-40
2022/10/10 05:39:02;;;;;;;;;;;;;;;26.74;32.72;101783.13;5058799;28;1120;-40
2022/10/10 05:41:27;;;;;;;;;;;;;;;26.75;33.10;101786.69;5074926;28;1054;-39
2022/10/10 05:43:52;;;;;;;;;;;;;;;26.72;33.12;101779.78;5059001;28;1230;-39
2022/10/10 05:46:19;;;;;;;;;;;;;;;26.85;33.01;101789.31;5058777;28;1135;-38
2022/10/10 05:48:44;;;;;;;;;;;;;;;26.77;32.93;101784.69;5058342;28;1116;-39
2022/10/10 05:51:11;;;;;;;;;;;;;;;26.84;32.50;101796.56;5057961;28;1128;-43
2022/10/10 05:53:36;;;;;;;;;;;;;;;26.78;32.91;101795.34;5058071;28;1895;-39
2022/10/10 05:56:02;;;;;;;;;;;;;;;26.73;33.01;101794.09;5058155;28;1127;-41
2022/10/10 05:58:27;;;;;;;;;;;;;;;26.70;33.14;101797.09;5060309;28;2358;-41
2022/10/10 06:00:52;;;;;;;;;;;;;;;26.68;33.31;101796.41;5058082;28;1223;-41
2022/10/10 06:03:18;;;;;;;;;;;;;;;26.71;32.82;101798.81;5058308;28;1152;-39
2022/10/10 06:05:43;;;;;;;;;;;;;;;26.73;33.17;101796.78;5075174;28;1199;-42
2022/10/10 06:08:09;;;;;;;;;;;;;;;26.75;32.76;101798.34;5058287;28;1144;-47
2022/10/10 06:10:34;;;;;;;;;;;;;;;26.81;32.61;101806.84;5058919;28;1168;-40
2022/10/10 06:13:00;;;;;;;;;;;;;;;26.81;32.52;101804.97;5071117;28;1898;-43
2022/10/10 06:15:25;;;;;;;;;;;;;;;26.86;32.49;101805.34;5057789;28;1175;-41
2022/10/10 06:17:50;;;;;;;;;;;;;;;26.95;32.68;101808.13;5057601;28;1254;-39
2022/10/10 06:20:16;;;;;;;;;;;;;;;27.00;32.69;101811.19;5068728;28;1240;-40
2022/10/10 06:22:41;;;;;;;;;;;;;;;27.04;32.65;101811.78;5074297;28;1262;-39
2022/10/10 06:25:06;;;;;;;;;;;;;;;27.09;32.68;101822.97;5057946;28;1113;-42
2022/10/10 06:27:32;;;;;;;;;;;;;;;27.08;32.47;101818.53;5058902;28;1869;-42
2022/10/10 06:29:57;;;;;;;;;;;;;;;27.12;32.40;101818.09;5070749;28;1115;-43
2022/10/10 06:32:22;;;;;;;;;;;;;;;27.16;32.25;101821.31;5057581;28;1167;-44
2022/10/10 06:34:48;;;;;;;;;;;;;;;27.20;32.46;101814.59;5061854;28;1956;-40
2022/10/10 06:37:13;;;;;;;;;;;;;;;27.29;32.38;101822.75;5066961;28;1096;-41
2022/10/10 06:39:38;;;;;;;;;;;;;;;27.31;32.07;101821.59;5057342;28;1195;-39
2022/10/10 06:42:03;;;;;;;;;;;;;;;27.38;31.96;101819.09;5057302;28;1104;-45
2022/10/10 06:44:29;;;;;;;;;;;;;;;27.31;32.23;101821.59;5057388;28;1207;-40
2022/10/10 06:46:54;;;;;;;;;;;;;;;27.43;31.81;101822.16;5057524;28;1194;-43
2022/10/10 06:49:19;;;;;;;;;;;;;;;27.36;32.19;101823.84;5057342;28;1128;-43
2022/10/10 06:51:45;;;;;;;;;;;;;;;27.38;32.04;101832.59;5057439;28;1140;-42
2022/10/10 06:54:10;;;;;;;;;;;;;;;27.49;31.92;101828.81;5056836;28;1922;-46
2022/10/10 06:56:36;;;;;;;;;;;;;;;27.31;32.29;101826.97;5056877;28;1155;-47
2022/10/10 06:59:01;;;;;;;;;;;;;;;27.37;32.12;101836.31;5076791;28;2687;-50
2022/10/10 07:01:27;;;;;;;;;;;;;;;27.39;32.06;101839.72;5062790;28;1151;-47
2022/10/10 07:03:52;;;;;;;;;;;;;;;27.45;32.40;101839.09;5056859;28;1038;-42
2022/10/10 07:06:17;;;;;;;;;;;;;;;27.80;31.97;101846.41;5057056;28;1278;-41
2022/10/10 07:08:43;;;;;;;;;;;;;;;28.06;31.37;101832.00;5057037;28;1455;-39
2022/10/10 07:11:08;;;;;;;;;;;;;;;27.75;32.03;101842.34;5070583;28;1132;-40
2022/10/10 07:13:34;;;;;;;;;;;;;;;27.66;31.96;101831.59;5068380;28;1914;-40
2022/10/10 07:15:59;;;;;;;;;;;;;;;27.67;31.83;101838.69;5074282;28;1140;-42
2022/10/10 07:18:25;;;;;;;;;;;;;;;27.66;31.86;101840.53;5076633;28;1230;-39
2022/10/10 07:20:50;;;;;;;;;;;;;;;27.67;32.13;101836.00;5061095;28;1160;-39
2022/10/10 07:23:16;;;;;;;;;;;;;;;27.73;31.92;101838.94;5039113;28;1386;-39
2022/10/10 07:25:41;;;;;;;;;;;;;;;27.74;31.83;101845.19;5056684;28;1140;-38
2022/10/10 07:28:07;;;;;;;;;;;;;;;27.76;31.88;101840.47;5056017;28;1885;-39
2022/10/10 07:30:32;;;;;;;;;;;;;;;27.83;31.79;101835.25;5056657;28;1088;-39
2022/10/10 07:32:58;;;;;;;;;;;;;;;27.78;32.03;101843.03;5056033;28;1906;-38
2022/10/10 07:35:23;;;;;;;;;;;;;;;27.90;31.45;101830.91;5065123;28;2106;-38
2022/10/10 07:37:52;;;;;;;;;;;;;;;27.83;31.80;101829.84;5048515;28;2115;-38
2022/10/10 07:40:17;;;;;;;;;;;;;;;27.86;32.03;101829.56;5060658;28;1975;-38
2022/10/10 07:42:42;;;;;;;;;;;;;;;27.84;32.09;101829.69;5061342;28;1226;-37
2022/10/10 07:45:10;;;;;;;;;;;;;;;27.81;32.08;101838.13;5076661;28;1198;-40
2022/10/10 07:47:36;;;;;;;;;;;;;;;27.85;32.14;101833.25;5062558;28;1176;-38
2022/10/10 07:50:01;;;;;;;;;;;;;;;27.83;31.77;101833.41;5071684;28;1841;-39
2022/10/10 07:52:26;;;;;;;;;;;;;;;27.83;32.26;101841.53;5064403;28;2216;-39
2022/10/10 07:54:52;;;;;;;;;;;;;;;27.84;31.98;101840.50;5072071;28;2302;-36
2022/10/10 07:57:17;;;;;;;;;;;;;;;27.92;32.03;101833.44;5067445;28;1900;-37
2022/10/10 07:59:44;;;;;;;;;;;;;;;27.93;32.12;101835.13;5055856;28;1840;-37
2022/10/10 08:02:09;;;;;;;;;;;;;;;27.92;32.08;101825.34;5066381;28;1833;-37
2022/10/10 08:04:35;;;;;;;;;;;;;;;27.91;32.02;101829.88;5062058;28;2038;-38
2022/10/10 08:07:00;;;;;;;;;;;;;;;27.96;31.91;101829.44;5062424;28;1808;-36
2022/10/10 08:09:25;;;;;;;;;;;;;;;27.93;31.92;101824.31;5076100;28;1162;-39
2022/10/10 08:11:51;;;;;;;;;;;;;;;27.95;31.87;101830.41;5075592;28;1171;-41
2022/10/10 08:14:16;;;;;;;;;;;;;;;27.97;32.13;101823.00;5075976;28;1905;-39
2022/10/10 08:16:41;;;;;;;;;;;;;;;28.01;32.00;101827.06;5071941;28;1198;-38
2022/10/10 08:19:07;;;;;;;;;;;;;;;28.14;31.94;101820.34;5069720;28;1147;-36
2022/10/10 08:21:34;;;;;;;;;;;;;;;28.14;31.75;101825.75;5063681;28;1151;-38
2022/10/10 08:24:00;;;;;;;;;;;;;;;28.10;31.92;101817.13;5075881;28;1123;-38
2022/10/10 08:26:25;;;;;;;;;;;;;;;28.08;31.74;101816.44;5061499;28;1200;-40
2022/10/10 08:28:50;;;;;;;;;;;;;;;28.13;31.73;101819.50;5053594;28;1231;-40
2022/10/10 08:31:16;;;;;;;;;;;;;;;28.18;31.80;101817.16;5073390;28;1140;-36
2022/10/10 08:33:42;;;;;;;;;;;;;;;28.21;31.50;101813.28;5075709;28;1893;-37
2022/10/10 08:36:08;;;;;;;;;;;;;;;28.19;31.86;101808.03;5066628;28;2443;-39
2022/10/10 08:38:33;;;;;;;;;;;;;;;28.18;31.89;101809.03;5068868;28;1194;-37
2022/10/10 08:40:59;;;;;;;;;;;;;;;28.28;31.52;101805.34;5070562;28;1151;-36
2022/10/10 08:43:27;;;;;;;;;;;;;;;28.29;31.77;101812.44;5043577;28;1105;-37
2022/10/10 08:45:52;;;;;;;;;;;;;;;28.32;31.54;101809.41;5076545;28;1178;-40
2022/10/10 08:48:20;;;;;;;;;;;;;;;28.27;31.91;101806.34;5079447;28;1170;-38
2022/10/10 08:50:46;;;;;;;;;;;;;;;28.70;31.16;101804.44;5079226;28;1095;-39
2022/10/10 08:53:50;;;;;;;;;;;;;;;28.60;31.06;101810.00;5055632;28;1965;-38
2022/10/10 08:56:27;;;;;;;;;;;;;;;28.41;31.47;101813.84;5030917;28;1401;-38
2022/10/10 08:58:54;;;;;;;;;;;;;;;28.32;31.60;101804.84;5020992;28;1121;-37
2022/10/10 09:01:22;;;;;;;;;;;;;;;28.37;31.59;101804.38;5031982;28;1089;-39
2022/10/10 09:03:57;;;;;;;;;;;;;;;28.48;31.51;101819.44;5078304;28;1235;-40
2022/10/10 09:06:31;;;;;;;;;;;;;;;28.88;29.10;101816.13;5050994;28;2288;-47
2022/10/10 09:09:00;;;;;;;;;;;;;;;27.99;24.75;101821.81;5077933;28;1191;-43
2022/10/10 09:11:44;;;;;;;;;;;;;;;28.30;27.23;101819.53;5061682;28;1111;-45
2022/10/10 09:14:28;;;;;;;;;;;;;;;28.31;24.30;101822.06;5073118;28;1914;-47
2022/10/10 09:17:08;;;;;;;;;;;;;;;28.44;23.33;101810.84;5071884;28;1100;-45
2022/10/10 09:19:45;;;;;;;;;;;;;;;27.80;21.59;101808.53;5079103;28;1143;-44
2022/10/10 09:22:15;;;;;;;;;;;;;;;27.66;23.00;101813.50;5077961;28;1157;-44
2022/10/10 09:24:43;;;;;;;;;;;;;;;28.21;23.05;101810.56;5061531;28;1211;-45
2022/10/10 09:27:11;;;;;;;;;;;;;;;27.87;22.72;101812.31;5078763;28;1234;-43
2022/10/10 09:29:38;;;;;;;;;;;;;;;28.16;22.16;101821.03;5076688;28;1539;-43
2022/10/10 09:32:06;;;;;;;;;;;;;;;28.36;22.65;101806.22;5067723;28;860;-45
2022/10/10 09:34:31;;;;;;;;;;;;;;;28.38;23.56;101807.94;5072865;28;1898;-44
2022/10/10 09:36:59;;;;;;;;;;;;;;;28.27;24.75;101795.53;5058318;28;2528;-43
2022/10/10 09:39:38;;;;;;;;;;;;;;;28.23;24.87;101806.69;5072596;28;1179;-43
2022/10/10 09:42:03;;;;;;;;;;;;;;;28.14;25.71;101799.56;5051065;28;1052;-43
2022/10/10 09:44:29;;;;;;;;;;;;;;;28.19;25.76;101801.78;5058746;28;1211;-45
2022/10/10 09:46:54;;;;;;;;;;;;;;;28.15;25.87;101801.25;5058336;28;1128;-43
2022/10/10 09:49:19;;;;;;;;;;;;;;;28.11;25.98;101798.03;5058248;28;1199;-43
2022/10/10 09:51:45;;;;;;;;;;;;;;;28.13;26.13;101797.03;5065615;28;1190;-44
2022/10/10 09:54:11;;;;;;;;;;;;;;;28.20;26.34;101795.34;5064046;28;1897;-44
2022/10/10 09:56:55;;;;;;;;;;;;;;;28.08;26.86;101790.22;5072505;28;1219;-49
2022/10/10 09:59:39;;;;;;;;;;;;;;;27.99;26.91;101792.06;5057863;28;1136;-43
2022/10/10 10:02:13;;;;;;;;;;;;;;;27.97;27.35;101794.09;5076400;28;1175;-43
2022/10/10 10:04:38;;;;;;;;;;;;;;;27.95;27.31;101785.31;5066478;28;1154;-44
2022/10/10 10:07:17;;;;;;;;;;;;;;;28.01;27.69;101788.38;5057851;28;2335;-43
2022/10/10 10:09:46;;;;;;;;;;;;;;;27.98;27.91;101784.09;5058252;28;1148;-44
2022/10/10 10:12:11;;;;;;;;;;;;;;;27.94;27.89;101778.22;5057851;28;1152;-44
2022/10/10 10:14:36;;;;;;;;;;;;;;;27.98;28.11;101771.44;5058382;28;1902;-43
2022/10/10 10:17:20;;;;;;;;;;;;;;;27.99;28.03;101780.41;5054206;28;1121;-43
2022/10/10 10:19:46;;;;;;;;;;;;;;;28.01;28.52;101782.94;5067961;28;1111;-43
2022/10/10 10:22:30;;;;;;;;;;;;;;;27.95;28.72;101773.63;5061710;28;1151;-43
2022/10/10 10:24:55;;;;;;;;;;;;;;;27.98;28.75;101778.69;5057908;28;1227;-43
2022/10/10 10:27:21;;;;;;;;;;;;;;;27.95;28.89;101779.88;5057718;28;1176;-47
2022/10/10 10:29:50;;;;;;;;;;;;;;;28.03;29.15;101772.81;5057213;28;1190;-44
2022/10/10 10:32:30;;;;;;;;;;;;;;;28.02;29.07;101777.38;5058164;28;1167;-44
2022/10/10 10:34:56;;;;;;;;;;;;;;;28.01;29.34;101772.13;5057242;28;1977;-43
2022/10/10 10:37:22;;;;;;;;;;;;;;;27.96;29.52;101778.88;5059516;28;2645;-44
2022/10/10 10:40:06;;;;;;;;;;;;;;;27.93;29.86;101776.50;5064327;28;1152;-42
2022/10/10 10:42:34;;;;;;;;;;;;;;;27.95;29.91;101771.78;5061657;28;1250;-45
2022/10/10 10:45:06;;;;;;;;;;;;;;;27.96;29.73;101769.94;5057484;28;1100;-43
2022/10/10 10:47:31;;;;;;;;;;;;;;;27.97;30.29;101774.31;5040210;28;1188;-47
2022/10/10 10:49:56;;;;;;;;;;;;;;;27.96;30.29;101775.34;5070949;28;1116;-43
2022/10/10 10:52:28;;;;;;;;;;;;;;;27.94;30.57;101772.78;5057073;28;1246;-47
2022/10/10 10:55:08;;;;;;;;;;;;;;;27.94;30.36;101761.97;5061771;28;1909;-46
2022/10/10 10:57:43;;;;;;;;;;;;;;;27.93;30.63;101759.41;5046651;28;1096;-44
2022/10/10 11:00:12;;;;;;;;;;;;;;;27.90;31.00;101755.19;5057182;28;1085;-47
2022/10/10 11:02:38;;;;;;;;;;;;;;;27.93;30.97;101760.28;5039523;28;1148;-44
2022/10/10 11:05:19;;;;;;;;;;;;;;;27.96;31.03;101756.41;5058019;28;1156;-46
2022/10/10 11:08:03;;;;;;;;;;;;;;;27.90;31.19;101751.63;5075108;28;1007;-47
2022/10/10 11:10:39;;;;;;;;;;;;;;;27.92;31.22;101746.91;5059426;28;1183;-44
2022/10/10 11:13:08;;;;;;;;;;;;;;;27.95;31.22;101749.28;5039066;28;1898;-45
2022/10/10 11:15:38;;;;;;;;;;;;;;;27.99;30.85;101737.97;5039135;28;1188;-44
2022/10/10 11:18:11;;;;;;;;;;;;;;;28.03;30.68;101740.38;5048892;28;1120;-45
2022/10/10 11:20:40;;;;;;;;;;;;;;;28.03;30.68;101734.97;5055760;28;1215;-44
2022/10/10 11:23:16;;;;;;;;;;;;;;;28.16;30.75;101739.88;5056879;28;1124;-47
2022/10/10 11:25:42;;;;;;;;;;;;;;;28.27;31.45;101730.59;5039244;28;1208;-50
2022/10/10 11:28:31;;;;;;;;;;;;;;;28.13;31.69;101737.50;5038603;28;1156;-45
2022/10/10 11:30:57;;;;;;;;;;;;;;;27.98;31.81;101746.25;5047539;28;1192;-44
2022/10/10 11:33:27;;;;;;;;;;;;;;;27.95;31.85;101724.94;5056596;28;1898;-44
2022/10/10 11:36:01;;;;;;;;;;;;;;;27.94;31.42;101728.66;5038252;28;2359;-43
2022/10/10 11:38:52;;;;;;;;;;;;;;;27.91;31.76;101731.72;5066461;28;1112;-43
2022/10/10 11:41:34;;;;;;;;;;;;;;;27.88;31.90;101727.47;5026225;28;1272;-45
2022/10/10 11:44:01;;;;;;;;;;;;;;;27.88;31.71;101730.16;5037902;28;888;-44
2022/10/10 11:46:35;;;;;;;;;;;;;;;27.89;32.19;101731.88;5056375;28;1116;-44
2022/10/10 11:49:06;;;;;;;;;;;;;;;27.88;31.79;101738.28;5056094;28;1237;-43
2022/10/10 11:51:31;;;;;;;;;;;;;;;27.90;31.83;101728.16;5056378;28;1175;-44
2022/10/10 11:53:58;;;;;;;;;;;;;;;27.94;31.97;101731.38;5067217;28;1964;-44
2022/10/10 11:56:26;;;;;;;;;;;;;;;28.16;31.78;101726.34;5054386;28;1159;-42
2022/10/10 11:59:01;;;;;;;;;;;;;;;28.08;31.64;101728.03;5048268;28;1140;-43
2022/10/10 12:01:28;;;;;;;;;;;;;;;28.00;31.80;101728.00;5062811;28;1159;-43
2022/10/10 12:03:56;;;;;;;;;;;;;;;27.97;31.90;101723.78;5043816;28;1152;-44
2022/10/10 12:06:23;;;;;;;;;;;;;;;27.91;31.98;101715.50;5067127;28;2249;-43
2022/10/10 12:08:56;;;;;;;;;;;;;;;27.87;32.28;101715.81;5075720;28;1103;-42
2022/10/10 12:11:23;;;;;;;;;;;;;;;27.89;32.18;101714.78;5047616;28;1163;-46
2022/10/10 12:13:52;;;;;;;;;;;;;;;27.87;32.22;101715.81;5055196;28;1906;-43
2022/10/10 12:16:21;;;;;;;;;;;;;;;27.86;32.47;101721.41;5038354;28;1179;-43
2022/10/10 12:18:50;;;;;;;;;;;;;;;27.91;32.21;101723.59;5037541;28;1101;-43
2022/10/10 12:21:19;;;;;;;;;;;;;;;27.90;32.25;101717.34;5038106;28;1222;-42
2022/10/10 12:23:49;;;;;;;;;;;;;;;27.96;32.27;101713.97;5038556;28;1117;-43
2022/10/10 12:26:16;;;;;;;;;;;;;;;28.01;32.50;101718.03;5057845;28;1155;-44
2022/10/10 12:29:00;;;;;;;;;;;;;;;28.01;32.21;101713.47;5062028;28;1088;-42
2022/10/10 12:31:26;;;;;;;;;;;;;;;27.94;32.79;101729.53;5065404;28;977;-45
2022/10/10 12:34:02;;;;;;;;;;;;;;;27.92;32.88;101725.28;5060623;28;1902;-43
2022/10/10 12:36:27;;;;;;;;;;;;;;;27.93;32.80;101735.06;5037725;28;2520;-44
2022/10/10 12:39:04;;;;;;;;;;;;;;;27.93;32.68;101732.38;5055640;28;1155;-44
2022/10/10 12:41:48;;;;;;;;;;;;;;;27.92;32.91;101728.84;5055504;28;1120;-44
2022/10/10 12:44:18;;;;;;;;;;;;;;;27.95;32.81;101725.81;5055083;28;899;-43
2022/10/10 12:46:43;;;;;;;;;;;;;;;27.93;33.05;101730.53;5055418;28;1105;-41
2022/10/10 12:49:21;;;;;;;;;;;;;;;27.92;33.49;101725.28;5055348;28;1219;-41
2022/10/10 12:52:05;;;;;;;;;;;;;;;27.93;33.50;101735.06;5055590;28;1076;-43